Time;durP1;ratioP1;P1;durP2;ratioP2;P2;SDS_P1;SDS_P2;PMS_P1;PMS_P2;Temp;Humidity;BMP_temperature;BMP_pressure;BME280_temperature;BME280_humidity;BME280_pressure;Samples;Min_cycle;Max_cycle;Signal;HPM_P1;HPM_P2
2023/01/05 00:08:36;;;;;;;3.60;2.60;;;;;;;6.34;100.00;98516.91;422639;1276;143670;-62
2023/01/05 00:29:02;;;;;;;3.00;2.50;;;;;;;6.54;100.00;98494.98;425821;1282;142910;-63
2023/01/05 00:39:08;;;;;;;2.30;2.10;;;;;;;6.64;100.00;98482.87;422083;1277;142078;-63
2023/01/05 00:49:14;;;;;;;2.60;2.40;;;;;;;6.69;100.00;98469.44;424521;1279;194864;-64
2023/01/05 00:59:20;;;;;;;2.20;2.00;;;;;;;6.76;100.00;98459.11;427114;1278;147109;-63
2023/01/05 01:09:26;;;;;;;3.60;3.00;;;;;;;6.79;100.00;98445.14;428642;1284;144299;-63
2023/01/05 01:19:32;;;;;;;3.50;3.10;;;;;;;6.80;100.00;98420.41;421953;1282;144905;-62
2023/01/05 01:29:38;;;;;;;3.30;3.10;;;;;;;6.75;100.00;98407.53;425506;1284;182901;-63
2023/01/05 01:39:44;;;;;;;3.60;2.90;;;;;;;6.66;100.00;98390.74;422526;1277;141394;-63
2023/01/05 01:49:51;;;;;;;2.80;2.50;;;;;;;6.62;100.00;98382.16;419797;1284;142309;-64
2023/01/05 01:59:59;;;;;;;3.20;2.20;;;;;;;6.61;100.00;98365.30;421225;1284;198120;-63
2023/01/05 02:10:06;;;;;;;2.80;2.30;;;;;;;6.63;100.00;98350.27;419260;1278;145682;-63
2023/01/05 02:20:45;;;;;;;1.70;1.60;;;;;;;6.67;100.00;98351.67;426223;1277;142178;-63
2023/01/05 02:31:07;;;;;;;3.20;1.30;;;;;;;6.76;100.00;98345.36;426403;1284;143224;-64
2023/01/05 02:41:21;;;;;;;2.20;1.90;;;;;;;6.84;100.00;98336.95;427715;1277;142207;-63
2023/01/05 02:51:31;;;;;;;0.60;0.40;;;;;;;6.91;100.00;98337.20;423206;1285;146975;-62
2023/01/05 03:01:40;;;;;;;2.20;0.40;;;;;;;6.91;100.00;98313.70;432116;1278;145393;-62
2023/01/05 03:43:17;;;;;;;0.40;0.40;;;;;;;6.86;100.00;98322.74;426730;1283;211020;-62
2023/01/05 03:53:23;;;;;;;1.20;0.50;;;;;;;6.83;100.00;98325.03;423409;1281;143189;-62
2023/01/05 04:03:28;;;;;;;0.50;0.50;;;;;;;6.74;100.00;98304.48;418886;1277;142660;-63
2023/01/05 04:13:37;;;;;;;1.60;0.60;;;;;;;6.66;100.00;98311.79;423276;1284;142297;-63
2023/01/05 04:23:42;;;;;;;0.60;0.50;;;;;;;6.65;100.00;98307.65;418934;1284;141976;-63
2023/01/05 04:33:48;;;;;;;0.80;0.60;;;;;;;6.69;100.00;98310.89;428136;1284;186659;-63
2023/01/05 04:43:54;;;;;;;0.70;0.60;;;;;;;6.76;100.00;98319.95;420954;1283;141115;-64
2023/01/05 04:54:00;;;;;;;1.80;0.80;;;;;;;6.80;100.00;98324.88;423038;1283;143329;-64
2023/01/05 05:04:06;;;;;;;3.90;1.50;;;;;;;6.83;100.00;98340.73;420912;1282;142501;-63
2023/01/05 05:14:12;;;;;;;1.60;1.50;;;;;;;6.82;100.00;98332.60;421511;1283;143374;-64
2023/01/05 05:24:17;;;;;;;1.50;1.40;;;;;;;6.80;100.00;98331.68;426137;1284;142660;-62
2023/01/05 05:34:23;;;;;;;2.10;1.00;;;;;;;6.78;100.00;98332.53;432440;1284;182493;-63
2023/01/05 05:44:29;;;;;;;2.70;2.00;;;;;;;6.80;100.00;98330.33;418326;1284;196953;-62
2023/01/05 05:54:35;;;;;;;5.20;1.80;;;;;;;6.80;100.00;98333.08;423137;1284;142705;-63
2023/01/05 06:04:41;;;;;;;4.40;1.80;;;;;;;6.81;100.00;98337.73;417688;1284;144207;-63
2023/01/05 06:14:47;;;;;;;1.90;1.30;;;;;;;6.79;100.00;98341.48;427620;1281;142464;-64
2023/01/05 06:24:53;;;;;;;2.10;1.50;;;;;;;6.77;100.00;98340.11;418358;1270;141480;-64
2023/01/05 06:34:59;;;;;;;4.40;1.60;;;;;;;6.78;100.00;98338.09;418016;1284;141889;-63
2023/01/05 06:45:07;;;;;;;5.70;1.70;;;;;;;6.79;100.00;98341.34;433595;1284;142588;-65
2023/01/05 06:55:13;;;;;;;2.70;1.60;;;;;;;6.78;100.00;98341.72;435093;1289;143629;-65
2023/01/05 07:05:22;;;;;;;3.00;1.60;;;;;;;6.78;100.00;98348.58;435669;1283;142581;-64
2023/01/05 07:15:27;;;;;;;4.10;2.10;;;;;;;6.77;100.00;98360.62;432680;1284;145640;-63
2023/01/05 07:25:33;;;;;;;5.00;1.80;;;;;;;6.82;100.00;98367.58;435646;1283;142316;-64
2023/01/05 07:35:39;;;;;;;2.70;1.90;;;;;;;6.94;100.00;98374.27;418992;1284;142694;-63
2023/01/05 07:45:45;;;;;;;3.70;1.40;;;;;;;7.11;100.00;98370.66;429197;1285;142542;-63
2023/01/05 07:56:01;;;;;;;4.80;2.20;;;;;;;7.35;100.00;98377.16;435666;1285;142732;-64
2023/01/05 08:06:09;;;;;;;3.00;1.70;;;;;;;7.46;100.00;98383.05;435689;1285;142288;-63
2023/01/05 08:16:15;;;;;;;4.40;1.90;;;;;;;7.69;100.00;98391.17;435116;1284;209775;-66
2023/01/05 08:26:23;;;;;;;7.40;1.40;;;;;;;8.22;99.46;98396.14;435635;1284;142525;-64
2023/01/05 08:36:30;;;;;;;2.00;1.60;;;;;;;8.30;98.46;98409.11;434846;1284;143823;-64
2023/01/05 08:46:36;;;;;;;5.70;2.60;;;;;;;8.67;98.26;98413.88;435674;1284;142735;-64
2023/01/05 08:56:43;;;;;;;2.80;1.80;;;;;;;9.13;97.04;98416.05;435669;1276;142641;-64
2023/01/05 09:06:48;;;;;;;3.10;1.70;;;;;;;8.92;96.58;98428.00;434899;1289;145106;-63
2023/01/05 09:16:54;;;;;;;3.90;2.10;;;;;;;9.12;96.24;98441.00;435604;1284;141931;-64
2023/01/05 09:27:15;;;;;;;4.90;1.90;;;;;;;9.32;95.25;98443.94;434841;1285;142198;-64
2023/01/05 09:37:21;;;;;;;5.90;2.20;;;;;;;9.25;94.43;98434.33;430949;1287;144843;-64
2023/01/05 09:47:30;;;;;;;2.80;1.90;;;;;;;9.53;93.33;98431.88;435697;1284;141947;-64
2023/01/05 09:57:36;;;;;;;4.70;1.70;;;;;;;9.06;92.70;98435.10;434867;1284;145452;-64
2023/01/05 10:07:47;;;;;;;3.50;1.30;;;;;;;8.92;92.94;98428.33;435641;1284;142377;-64
2023/01/05 10:17:53;;;;;;;4.20;1.30;;;;;;;8.98;92.23;98424.17;435647;1285;142435;-64
2023/01/05 10:28:10;;;;;;;1.60;1.30;;;;;;;8.76;91.27;98424.45;434926;1283;142399;-64
2023/01/05 10:38:30;;;;;;;1.20;0.90;;;;;;;8.50;91.12;98427.91;429204;1284;142771;-64
2023/01/05 10:48:37;;;;;;;5.30;2.20;;;;;;;8.55;91.06;98429.45;434861;1277;142271;-64
2023/01/05 10:58:45;;;;;;;3.80;1.20;;;;;;;8.57;90.22;98431.22;435644;1284;142465;-64
2023/01/05 11:08:51;;;;;;;2.00;1.30;;;;;;;8.40;90.12;98435.77;435653;1284;141599;-64
2023/01/05 11:19:00;;;;;;;5.00;1.60;;;;;;;8.17;90.39;98436.19;434840;1284;143742;-64
2023/01/05 11:29:14;;;;;;;2.80;1.10;;;;;;;8.32;90.40;98426.44;435614;1283;142172;-64
2023/01/05 11:39:28;;;;;;;1.60;1.00;;;;;;;8.97;89.40;98429.69;428428;1286;145147;-64
2023/01/05 11:49:35;;;;;;;2.40;1.30;;;;;;;9.51;88.37;98447.89;434862;1284;141641;-64
2023/01/05 11:59:41;;;;;;;2.60;1.40;;;;;;;9.65;87.34;98451.19;433149;1284;142810;-64
2023/01/05 12:09:54;;;;;;;1.90;1.30;;;;;;;9.30;87.06;98443.05;434814;1278;143419;-64
2023/01/05 12:20:21;;;;;;;3.60;1.90;;;;;;;8.78;87.18;98452.05;435574;1284;141619;-65
2023/01/05 12:30:32;;;;;;;;;;;;;;;8.24;87.43;98471.08;434832;1276;142612;-65
2023/01/05 12:41:13;;;;;;;5.50;1.40;;;;;;;7.89;87.17;98469.38;435778;1274;128790;-64
2023/01/05 12:51:22;;;;;;;4.40;1.70;;;;;;;7.81;87.49;98466.59;434855;1276;142677;-64
2023/01/05 13:01:33;;;;;;;2.60;1.30;;;;;;;7.59;87.87;98469.70;435524;1276;144200;-64
2023/01/05 13:11:45;;;;;;;3.10;1.90;;;;;;;7.40;88.13;98470.52;435622;1284;144239;-64
2023/01/05 13:21:53;;;;;;;3.50;1.90;;;;;;;7.24;87.67;98476.80;434826;1286;143152;-64
2023/01/05 13:32:25;;;;;;;3.00;1.20;;;;;;;7.12;86.82;98477.28;434086;1284;144947;-64
2023/01/05 13:42:53;;;;;;;1.90;1.20;;;;;;;7.07;86.45;98487.71;434850;1284;142657;-64
2023/01/05 13:53:06;;;;;;;0.80;0.60;;;;;;;6.95;86.29;98498.36;435587;1289;143172;-64
2023/01/05 14:03:23;;;;;;;1.50;0.90;;;;;;;6.74;86.81;98511.95;419577;1285;142099;-63
2023/01/05 14:13:47;;;;;;;2.40;1.60;;;;;;;6.49;87.32;98522.73;435605;1277;143053;-63
2023/01/05 14:23:59;;;;;;;2.20;1.20;;;;;;;6.30;88.03;98536.33;435575;1284;142634;-63
2023/01/05 14:34:08;;;;;;;2.70;1.00;;;;;;;6.12;88.10;98540.55;427902;1284;143235;-64
2023/01/05 14:44:20;;;;;;;2.40;1.20;;;;;;;6.08;87.88;98551.58;435541;1284;146218;-64
2023/01/05 14:55:11;;;;;;;2.60;1.40;;;;;;;6.12;87.67;98568.20;434850;1284;142960;-64
2023/01/05 15:05:42;;;;;;;4.70;1.60;;;;;;;6.13;87.86;98574.91;435602;1281;142882;-64
2023/01/05 15:15:54;;;;;;;3.30;1.20;;;;;;;6.07;88.52;98582.23;434577;1284;145170;-65
2023/01/05 15:26:37;;;;;;;1.70;1.30;;;;;;;5.97;88.93;98587.47;435488;1283;142420;-64
2023/01/05 15:36:49;;;;;;;2.10;1.60;;;;;;;5.89;89.33;98593.34;434493;1276;142355;-64
2023/01/05 15:46:55;;;;;;;2.40;1.50;;;;;;;5.83;89.35;98602.90;435269;1277;182246;-65
2023/01/05 15:57:02;;;;;;;3.00;1.40;;;;;;;5.83;89.67;98616.30;435373;1284;142595;-64
2023/01/05 16:07:10;;;;;;;2.10;1.30;;;;;;;5.79;89.59;98614.80;434661;1278;142140;-64
2023/01/05 16:17:20;;;;;;;2.20;1.40;;;;;;;5.73;89.83;98644.13;435471;1277;195163;-64
2023/01/05 16:27:27;;;;;;;0.50;0.50;;;;;;;5.52;90.50;98675.21;434649;1283;144294;-64
2023/01/05 16:37:32;;;;;;;2.50;1.80;;;;;;;5.04;92.02;98712.73;418878;1277;142284;-64
2023/01/05 16:47:41;;;;;;;2.20;1.70;;;;;;;4.61;93.26;98747.66;418483;1282;143750;-64
2023/01/05 16:57:47;;;;;;;2.20;1.10;;;;;;;4.27;93.17;98762.77;418933;1277;142693;-63
2023/01/05 17:08:02;;;;;;;1.70;1.60;;;;;;;4.10;92.63;98807.25;435588;1285;142583;-64
2023/01/05 17:18:17;;;;;;;1.70;1.40;;;;;;;4.02;92.81;98840.39;435506;1284;142452;-64
2023/01/05 17:28:23;;;;;;;1.50;1.20;;;;;;;3.88;92.33;98876.39;435114;1287;206639;-63
2023/01/05 17:38:29;;;;;;;1.30;1.20;;;;;;;3.65;91.37;98887.30;432437;1286;142084;-65
2023/01/05 17:48:35;;;;;;;1.10;1.00;;;;;;;3.53;91.05;98923.20;434898;1277;143644;-65
2023/01/05 17:58:41;;;;;;;2.50;1.50;;;;;;;3.49;90.96;98944.63;435628;1284;142347;-64
2023/01/05 18:08:47;;;;;;;2.10;1.00;;;;;;;3.48;90.82;98953.67;432486;1284;144799;-63
2023/01/05 18:18:53;;;;;;;1.20;1.10;;;;;;;3.47;90.44;98975.70;434862;1283;142428;-64
2023/01/05 18:28:59;;;;;;;1.60;1.10;;;;;;;3.46;90.42;98995.15;435481;1286;143561;-63
2023/01/05 18:39:05;;;;;;;1.60;1.20;;;;;;;3.45;90.20;99013.51;435421;1285;142323;-62
2023/01/05 18:49:12;;;;;;;3.80;1.90;;;;;;;3.44;90.11;99036.56;434908;1284;197040;-63
2023/01/05 18:59:18;;;;;;;2.60;2.00;;;;;;;3.42;90.05;99056.71;435563;1291;144015;-62
2023/01/05 19:09:23;;;;;;;3.10;2.50;;;;;;;3.43;90.20;99086.80;434891;1289;144819;-63
2023/01/05 19:19:29;;;;;;;2.70;2.40;;;;;;;3.40;90.62;99108.05;435664;1284;143609;-63
2023/01/05 19:29:35;;;;;;;6.50;4.20;;;;;;;3.34;91.02;99125.23;426749;1283;144892;-63
2023/01/05 19:39:41;;;;;;;3.90;2.90;;;;;;;3.25;91.32;99142.74;433909;1287;144538;-63
2023/01/05 19:49:47;;;;;;;3.90;2.70;;;;;;;3.17;91.80;99157.95;435145;1286;143158;-63
2023/01/05 19:59:53;;;;;;;3.90;3.50;;;;;;;3.11;92.08;99178.08;435010;1287;142571;-64
2023/01/05 20:09:59;;;;;;;5.90;4.00;;;;;;;3.04;92.55;99191.16;428211;1287;146733;-63
2023/01/05 20:20:06;;;;;;;3.60;3.00;;;;;;;2.94;92.69;99199.31;417773;1280;141808;-63
2023/01/05 20:30:13;;;;;;;4.60;3.40;;;;;;;2.78;93.46;99211.48;418826;1286;141369;-63
2023/01/05 20:40:19;;;;;;;2.70;2.50;;;;;;;2.69;94.29;99225.17;434719;1285;200728;-64
2023/01/05 20:50:25;;;;;;;2.80;2.00;;;;;;;2.64;94.33;99246.05;435299;1284;143179;-63
2023/01/05 21:00:31;;;;;;;4.70;3.30;;;;;;;2.62;94.80;99268.43;422190;1284;144671;-64
2023/01/05 21:10:38;;;;;;;3.10;2.60;;;;;;;2.54;95.27;99294.13;419540;1285;142725;-64
2023/01/05 21:20:44;;;;;;;3.50;2.40;;;;;;;2.37;96.08;99309.23;418742;1284;143484;-64
2023/01/05 21:30:50;;;;;;;3.50;3.10;;;;;;;2.32;96.46;99327.02;434372;1289;142913;-62
2023/01/05 21:41:04;;;;;;;2.70;2.40;;;;;;;2.37;96.60;99343.95;435742;1290;142147;-63
2023/01/05 22:01:38;;;;;;;2.60;2.30;;;;;;;2.46;96.41;99388.05;435425;1286;196355;-63
2023/01/05 22:11:44;;;;;;;2.90;2.60;;;;;;;2.49;96.31;99411.62;432247;1289;143657;-63
2023/01/05 22:21:50;;;;;;;2.90;2.50;;;;;;;2.52;95.54;99429.83;435003;1287;143364;-63
2023/01/05 22:31:56;;;;;;;3.70;2.80;;;;;;;2.50;94.95;99448.91;435728;1284;143793;-63
2023/01/05 22:42:03;;;;;;;5.30;4.30;;;;;;;2.51;94.70;99472.73;435824;1283;142146;-64
2023/01/05 22:52:09;;;;;;;4.00;3.60;;;;;;;2.51;94.06;99502.44;435191;1284;197039;-63
2023/01/05 23:02:15;;;;;;;3.00;2.50;;;;;;;2.52;93.81;99528.51;435809;1283;141458;-63
2023/01/05 23:12:21;;;;;;;2.90;2.60;;;;;;;2.50;93.05;99551.38;430533;1290;143309;-65
2023/01/05 23:22:27;;;;;;;2.00;1.90;;;;;;;2.44;92.24;99571.80;419360;1283;142130;-63
2023/01/05 23:32:33;;;;;;;3.60;3.30;;;;;;;2.35;92.44;99584.84;419795;1283;143200;-63
2023/01/05 23:42:45;;;;;;;4.60;3.60;;;;;;;2.29;92.23;99594.70;418504;1277;143979;-64
2023/01/05 23:52:51;;;;;;;4.00;3.40;;;;;;;2.22;92.31;99613.20;431838;1284;142636;-64
